sensor_id;sensor_type;location;lat;lon;timestamp;pressure;altitude;pressure_sealevel;temperature;humidity
40794;BME280;26502;51.886;15.604;2023-11-19T00:04:27;101029.02;;;2.87;84.39
40794;BME280;26502;51.886;15.604;2023-11-19T00:09:53;101018.31;;;2.92;84.31
40794;BME280;26502;51.886;15.604;2023-11-19T00:15:19;101012.17;;;2.90;84.24
40794;BME280;26502;51.886;15.604;2023-11-19T00:20:48;100990.42;;;2.93;84.49
40794;BME280;26502;51.886;15.604;2023-11-19T00:26:14;100973.96;;;2.98;84.48
40794;BME280;26502;51.886;15.604;2023-11-19T00:31:41;100968.85;;;2.90;84.30
40794;BME280;26502;51.886;15.604;2023-11-19T00:37:08;100951.44;;;2.84;84.47
40794;BME280;26502;51.886;15.604;2023-11-19T00:42:34;100930.95;;;2.90;84.68
40794;BME280;26502;51.886;15.604;2023-11-19T00:48:00;100919.02;;;2.89;84.57
40794;BME280;26502;51.886;15.604;2023-11-19T00:53:27;100901.84;;;2.94;84.69
40794;BME280;26502;51.886;15.604;2023-11-19T00:58:53;100887.62;;;2.92;84.66
40794;BME280;26502;51.886;15.604;2023-11-19T01:04:21;100871.11;;;2.88;84.71
40794;BME280;26502;51.886;15.604;2023-11-19T01:09:47;100855.48;;;2.80;84.75
40794;BME280;26502;51.886;15.604;2023-11-19T01:15:13;100858.81;;;2.77;84.76
40794;BME280;26502;51.886;15.604;2023-11-19T01:20:40;100861.27;;;2.69;84.84
40794;BME280;26502;51.886;15.604;2023-11-19T01:26:06;100857.39;;;2.68;85.08
40794;BME280;26502;51.886;15.604;2023-11-19T01:31:35;100844.42;;;2.71;85.17
40794;BME280;26502;51.886;15.604;2023-11-19T01:37:02;100832.33;;;2.73;85.25
40794;BME280;26502;51.886;15.604;2023-11-19T01:42:30;100820.06;;;2.77;85.20
40794;BME280;26502;51.886;15.604;2023-11-19T01:48:04;100822.85;;;2.71;85.12
40794;BME280;26502;51.886;15.604;2023-11-19T01:53:31;100798.31;;;2.77;85.31
40794;BME280;26502;51.886;15.604;2023-11-19T01:59:00;100793.23;;;2.83;85.30
40794;BME280;26502;51.886;15.604;2023-11-19T02:04:27;100776.05;;;2.86;85.20
40794;BME280;26502;51.886;15.604;2023-11-19T02:09:53;100761.66;;;2.78;85.11
40794;BME280;26502;51.886;15.604;2023-11-19T02:15:19;100749.38;;;2.78;85.20
40794;BME280;26502;51.886;15.604;2023-11-19T02:20:48;100726.05;;;2.79;85.30
40794;BME280;26502;51.886;15.604;2023-11-19T02:26:21;100707.83;;;2.76;85.19
40794;BME280;26502;51.886;15.604;2023-11-19T02:31:51;100684.14;;;2.80;85.34
40794;BME280;26502;51.886;15.604;2023-11-19T02:37:17;100657.30;;;2.82;85.30
40794;BME280;26502;51.886;15.604;2023-11-19T02:42:44;100650.64;;;2.75;85.21
40794;BME280;26502;51.886;15.604;2023-11-19T02:48:10;100652.73;;;2.80;85.36
40794;BME280;26502;51.886;15.604;2023-11-19T02:53:38;100654.33;;;2.74;85.14
40794;BME280;26502;51.886;15.604;2023-11-19T02:59:05;100649.23;;;2.73;85.42
40794;BME280;26502;51.886;15.604;2023-11-19T03:04:40;100628.55;;;2.76;85.49
40794;BME280;26502;51.886;15.604;2023-11-19T03:10:09;100614.69;;;2.77;85.36
40794;BME280;26502;51.886;15.604;2023-11-19T03:15:38;100606.64;;;2.64;85.30
40794;BME280;26502;51.886;15.604;2023-11-19T03:21:05;100587.70;;;2.64;85.47
40794;BME280;26502;51.886;15.604;2023-11-19T03:26:31;100570.33;;;2.71;85.63
40794;BME280;26502;51.886;15.604;2023-11-19T03:31:59;100557.70;;;2.74;85.52
40794;BME280;26502;51.886;15.604;2023-11-19T03:37:25;100550.86;;;2.71;85.51
40794;BME280;26502;51.886;15.604;2023-11-19T03:42:48;100527.70;;;2.76;85.64
40794;BME280;26502;51.886;15.604;2023-11-19T03:48:15;100507.19;;;2.77;85.62
40794;BME280;26502;51.886;15.604;2023-11-19T03:53:44;100489.66;;;2.73;85.45
40794;BME280;26502;51.886;15.604;2023-11-19T03:59:11;100482.64;;;2.70;85.46
40794;BME280;26502;51.886;15.604;2023-11-19T04:04:37;100490.38;;;2.67;85.47
40794;BME280;26502;51.886;15.604;2023-11-19T04:10:04;100482.33;;;2.63;85.51
40794;BME280;26502;51.886;15.604;2023-11-19T04:15:30;100483.02;;;2.68;85.57
40794;BME280;26502;51.886;15.604;2023-11-19T04:20:57;100472.17;;;2.61;85.46
40794;BME280;26502;51.886;15.604;2023-11-19T04:26:23;100470.95;;;2.58;85.65
40794;BME280;26502;51.886;15.604;2023-11-19T04:31:49;100465.13;;;2.65;85.80
40794;BME280;26502;51.886;15.604;2023-11-19T04:37:16;100442.86;;;2.68;85.78
40794;BME280;26502;51.886;15.604;2023-11-19T04:42:42;100436.35;;;2.75;85.80
40794;BME280;26502;51.886;15.604;2023-11-19T04:48:08;100435.26;;;2.83;85.80
40794;BME280;26502;51.886;15.604;2023-11-19T04:53:35;100424.90;;;2.84;85.82
40794;BME280;26502;51.886;15.604;2023-11-19T04:59:01;100409.80;;;2.86;85.84
40794;BME280;26502;51.886;15.604;2023-11-19T05:04:27;100392.09;;;2.85;85.80
40794;BME280;26502;51.886;15.604;2023-11-19T05:09:53;100375.27;;;2.81;85.78
40794;BME280;26502;51.886;15.604;2023-11-19T05:15:20;100369.67;;;2.80;85.76
40794;BME280;26502;51.886;15.604;2023-11-19T05:20:46;100351.61;;;2.81;85.84
40794;BME280;26502;51.886;15.604;2023-11-19T05:26:18;100334.06;;;2.81;85.73
40794;BME280;26502;51.886;15.604;2023-11-19T05:31:45;100323.13;;;2.62;85.50
40794;BME280;26502;51.886;15.604;2023-11-19T05:37:12;100278.98;;;2.59;85.97
40794;BME280;26502;51.886;15.604;2023-11-19T05:42:40;100266.50;;;2.63;86.00
40794;BME280;26502;51.886;15.604;2023-11-19T05:48:06;100260.59;;;2.56;85.80
40794;BME280;26502;51.886;15.604;2023-11-19T05:53:35;100249.56;;;2.55;85.97
40794;BME280;26502;51.886;15.604;2023-11-19T05:59:03;100257.11;;;2.49;85.96
40794;BME280;26502;51.886;15.604;2023-11-19T06:04:31;100237.83;;;2.49;86.24
40794;BME280;26502;51.886;15.604;2023-11-19T06:09:58;100247.52;;;2.43;86.03
40794;BME280;26502;51.886;15.604;2023-11-19T06:15:24;100249.27;;;2.44;86.35
40794;BME280;26502;51.886;15.604;2023-11-19T06:20:50;100238.55;;;2.48;86.35
40794;BME280;26502;51.886;15.604;2023-11-19T06:26:17;100236.81;;;2.46;86.17
40794;BME280;26502;51.886;15.604;2023-11-19T06:31:43;100230.83;;;2.48;86.28
40794;BME280;26502;51.886;15.604;2023-11-19T06:37:09;100215.90;;;2.53;86.46
40794;BME280;26502;51.886;15.604;2023-11-19T06:42:36;100212.73;;;2.56;86.44
40794;BME280;26502;51.886;15.604;2023-11-19T06:48:05;100202.95;;;2.51;86.28
40794;BME280;26502;51.886;15.604;2023-11-19T06:53:32;100186.13;;;2.49;86.38
40794;BME280;26502;51.886;15.604;2023-11-19T06:58:58;100169.78;;;2.55;86.54
40794;BME280;26502;51.886;15.604;2023-11-19T07:04:24;100155.42;;;2.53;86.36
40794;BME280;26502;51.886;15.604;2023-11-19T07:09:50;100153.99;;;2.57;86.40
40794;BME280;26502;51.886;15.604;2023-11-19T07:15:16;100140.33;;;2.56;86.36
40794;BME280;26502;51.886;15.604;2023-11-19T07:20:43;100138.77;;;2.53;86.23
40794;BME280;26502;51.886;15.604;2023-11-19T07:26:11;100128.77;;;2.55;86.48
40794;BME280;26502;51.886;15.604;2023-11-19T07:31:37;100111.05;;;2.57;86.45
40794;BME280;26502;51.886;15.604;2023-11-19T07:37:03;100095.09;;;2.58;86.49
40794;BME280;26502;51.886;15.604;2023-11-19T07:42:30;100077.31;;;2.64;86.59
40794;BME280;26502;51.886;15.604;2023-11-19T07:47:57;100064.48;;;2.68;86.60
40794;BME280;26502;51.886;15.604;2023-11-19T07:53:24;100071.98;;;2.72;86.69
40794;BME280;26502;51.886;15.604;2023-11-19T07:58:50;100077.77;;;2.71;86.73
40794;BME280;26502;51.886;15.604;2023-11-19T08:04:16;100076.66;;;2.79;86.79
40794;BME280;26502;51.886;15.604;2023-11-19T08:09:43;100065.97;;;2.78;86.74
40794;BME280;26502;51.886;15.604;2023-11-19T08:15:10;100050.15;;;2.80;86.78
40794;BME280;26502;51.886;15.604;2023-11-19T08:20:36;100033.69;;;2.78;86.88
40794;BME280;26502;51.886;15.604;2023-11-19T08:26:03;100026.56;;;2.89;87.01
40794;BME280;26502;51.886;15.604;2023-11-19T08:31:29;100016.42;;;2.86;87.06
40794;BME280;26502;51.886;15.604;2023-11-19T08:36:55;100003.98;;;2.86;86.95
40794;BME280;26502;51.886;15.604;2023-11-19T08:42:22;99990.08;;;2.87;87.13
40794;BME280;26502;51.886;15.604;2023-11-19T08:47:48;99980.61;;;2.88;87.06
40794;BME280;26502;51.886;15.604;2023-11-19T08:53:15;99982.91;;;2.87;87.20
40794;BME280;26502;51.886;15.604;2023-11-19T08:58:41;99979.01;;;2.90;87.30
40794;BME280;26502;51.886;15.604;2023-11-19T09:04:07;99974.27;;;2.90;87.32
40794;BME280;26502;51.886;15.604;2023-11-19T09:09:33;99968.10;;;2.93;87.50
40794;BME280;26502;51.886;15.604;2023-11-19T09:15:00;99964.52;;;2.99;87.54
40794;BME280;26502;51.886;15.604;2023-11-19T09:20:27;99958.77;;;3.11;87.92
40794;BME280;26502;51.886;15.604;2023-11-19T09:25:57;99954.63;;;3.17;87.69
40794;BME280;26502;51.886;15.604;2023-11-19T09:31:24;99952.29;;;3.21;87.72
40794;BME280;26502;51.886;15.604;2023-11-19T09:36:51;99952.60;;;3.24;87.79
40794;BME280;26502;51.886;15.604;2023-11-19T09:42:20;99943.23;;;3.30;87.96
40794;BME280;26502;51.886;15.604;2023-11-19T09:47:47;99935.91;;;3.37;88.04
40794;BME280;26502;51.886;15.604;2023-11-19T09:53:13;99933.55;;;3.43;88.01
40794;BME280;26502;51.886;15.604;2023-11-19T09:58:40;99924.66;;;3.51;88.22
40794;BME280;26502;51.886;15.604;2023-11-19T10:04:07;99908.64;;;3.64;88.29
40794;BME280;26502;51.886;15.604;2023-11-19T10:09:34;99896.98;;;3.69;88.26
40794;BME280;26502;51.886;15.604;2023-11-19T10:15:01;99888.39;;;3.68;88.30
40794;BME280;26502;51.886;15.604;2023-11-19T10:20:27;99875.13;;;3.73;88.54
40794;BME280;26502;51.886;15.604;2023-11-19T10:25:54;99869.95;;;3.87;88.74
40794;BME280;26502;51.886;15.604;2023-11-19T10:31:27;99863.48;;;3.96;88.69
40794;BME280;26502;51.886;15.604;2023-11-19T10:36:53;99849.48;;;4.03;88.81
40794;BME280;26502;51.886;15.604;2023-11-19T10:42:22;99852.33;;;4.10;88.80
40794;BME280;26502;51.886;15.604;2023-11-19T10:47:49;99837.94;;;4.17;88.87
40794;BME280;26502;51.886;15.604;2023-11-19T10:53:16;99832.05;;;4.22;88.86
40794;BME280;26502;51.886;15.604;2023-11-19T10:58:45;99821.45;;;4.33;89.07
40794;BME280;26502;51.886;15.604;2023-11-19T11:04:18;99808.94;;;4.44;89.12
40794;BME280;26502;51.886;15.604;2023-11-19T11:09:46;99811.77;;;4.50;89.09
40794;BME280;26502;51.886;15.604;2023-11-19T11:15:13;99806.90;;;4.65;89.34
40794;BME280;26502;51.886;15.604;2023-11-19T11:20:40;99803.97;;;4.70;89.24
40794;BME280;26502;51.886;15.604;2023-11-19T11:26:29;99797.06;;;4.80;89.44
40794;BME280;26502;51.886;15.604;2023-11-19T11:32:04;99785.60;;;4.96;89.62
40794;BME280;26502;51.886;15.604;2023-11-19T11:37:36;99776.97;;;5.11;89.61
40794;BME280;26502;51.886;15.604;2023-11-19T11:42:46;99763.64;;;5.23;89.64
40794;BME280;26502;51.886;15.604;2023-11-19T11:48:16;99757.76;;;5.40;89.82
40794;BME280;26502;51.886;15.604;2023-11-19T11:53:44;99764.55;;;5.57;89.89
40794;BME280;26502;51.886;15.604;2023-11-19T11:59:20;99770.70;;;5.70;90.04
40794;BME280;26502;51.886;15.604;2023-11-19T12:04:51;99769.06;;;5.85;90.16
40794;BME280;26502;51.886;15.604;2023-11-19T12:10:17;99765.25;;;6.03;90.44
40794;BME280;26502;51.886;15.604;2023-11-19T12:16:09;99753.00;;;6.12;90.50
40794;BME280;26502;51.886;15.604;2023-11-19T12:21:37;99751.24;;;6.24;90.52
40794;BME280;26502;51.886;15.604;2023-11-19T12:27:04;99746.55;;;6.34;90.65
40794;BME280;26502;51.886;15.604;2023-11-19T12:32:38;99741.36;;;6.42;90.46
40794;BME280;26502;51.886;15.604;2023-11-19T12:38:05;99731.55;;;6.57;90.65
40794;BME280;26502;51.886;15.604;2023-11-19T12:43:32;99727.05;;;6.66;90.83
40794;BME280;26502;51.886;15.604;2023-11-19T12:48:59;99721.22;;;6.77;90.90
40794;BME280;26502;51.886;15.604;2023-11-19T12:54:37;99720.23;;;6.97;91.23
40794;BME280;26502;51.886;15.604;2023-11-19T13:00:05;99716.52;;;7.28;91.50
40794;BME280;26502;51.886;15.604;2023-11-19T13:05:34;99703.07;;;7.34;90.97
40794;BME280;26502;51.886;15.604;2023-11-19T13:11:02;99705.45;;;7.42;91.05
40794;BME280;26502;51.886;15.604;2023-11-19T13:16:29;99697.98;;;7.49;90.95
40794;BME280;26502;51.886;15.604;2023-11-19T13:21:55;99692.71;;;7.53;91.00
40794;BME280;26502;51.886;15.604;2023-11-19T13:27:22;99686.41;;;7.56;90.94
40794;BME280;26502;51.886;15.604;2023-11-19T13:32:48;99689.49;;;7.59;91.05
40794;BME280;26502;51.886;15.604;2023-11-19T13:38:15;99691.71;;;7.71;91.27
40794;BME280;26502;51.886;15.604;2023-11-19T13:43:41;99677.61;;;7.75;90.99
40794;BME280;26502;51.886;15.604;2023-11-19T13:49:09;99670.23;;;7.78;91.09
40794;BME280;26502;51.886;15.604;2023-11-19T13:54:37;99665.73;;;7.85;91.21
40794;BME280;26502;51.886;15.604;2023-11-19T14:00:06;99666.33;;;8.02;91.46
40794;BME280;26502;51.886;15.604;2023-11-19T14:05:38;99668.94;;;8.22;91.49
40794;BME280;26502;51.886;15.604;2023-11-19T14:11:07;99671.54;;;8.37;91.35
40794;BME280;26502;51.886;15.604;2023-11-19T14:16:34;99680.44;;;8.45;91.02
40794;BME280;26502;51.886;15.604;2023-11-19T14:22:00;99687.14;;;8.46;90.82
40794;BME280;26502;51.886;15.604;2023-11-19T14:27:27;99687.72;;;8.44;90.87
40794;BME280;26502;51.886;15.604;2023-11-19T14:32:54;99685.54;;;8.46;91.14
40794;BME280;26502;51.886;15.604;2023-11-19T14:38:22;99683.31;;;8.49;91.39
40794;BME280;26502;51.886;15.604;2023-11-19T14:43:50;99684.91;;;8.66;91.99
40794;BME280;26502;51.886;15.604;2023-11-19T14:49:17;99690.89;;;8.81;92.17
40794;BME280;26502;51.886;15.604;2023-11-19T14:54:47;99697.09;;;8.89;92.08
40794;BME280;26502;51.886;15.604;2023-11-19T15:00:15;99697.27;;;8.93;91.85
40794;BME280;26502;51.886;15.604;2023-11-19T15:05:41;99700.61;;;8.94;91.74
40794;BME280;26502;51.886;15.604;2023-11-19T15:11:08;99705.90;;;8.95;91.76
40794;BME280;26502;51.886;15.604;2023-11-19T15:16:34;99714.54;;;8.91;91.58
40794;BME280;26502;51.886;15.604;2023-11-19T15:22:00;99724.45;;;8.87;91.56
40794;BME280;26502;51.886;15.604;2023-11-19T15:27:30;99724.23;;;8.79;91.27
40794;BME280;26502;51.886;15.604;2023-11-19T15:32:56;99720.83;;;8.75;91.52
40794;BME280;26502;51.886;15.604;2023-11-19T15:38:23;99724.35;;;8.76;91.64
40794;BME280;26502;51.886;15.604;2023-11-19T15:43:49;99724.74;;;8.84;91.86
40794;BME280;26502;51.886;15.604;2023-11-19T15:49:16;99724.57;;;8.84;91.86
40794;BME280;26502;51.886;15.604;2023-11-19T15:54:46;99725.52;;;8.82;91.98
40794;BME280;26502;51.886;15.604;2023-11-19T16:00:14;99723.72;;;8.78;91.83
40794;BME280;26502;51.886;15.604;2023-11-19T16:05:42;99719.06;;;8.75;91.85
40794;BME280;26502;51.886;15.604;2023-11-19T16:11:10;99728.69;;;8.69;91.85
40794;BME280;26502;51.886;15.604;2023-11-19T16:16:38;99735.11;;;8.73;92.07
40794;BME280;26502;51.886;15.604;2023-11-19T16:22:07;99731.41;;;8.76;92.20
40794;BME280;26502;51.886;15.604;2023-11-19T16:27:36;99742.66;;;8.79;92.22
40794;BME280;26502;51.886;15.604;2023-11-19T16:33:05;99736.35;;;8.77;92.13
40794;BME280;26502;51.886;15.604;2023-11-19T16:38:34;99731.36;;;8.73;91.94
40794;BME280;26502;51.886;15.604;2023-11-19T16:44:04;99738.23;;;8.70;91.89
40794;BME280;26502;51.886;15.604;2023-11-19T16:49:33;99737.79;;;8.63;91.80
40794;BME280;26502;51.886;15.604;2023-11-19T16:55:02;99744.15;;;8.63;91.85
40794;BME280;26502;51.886;15.604;2023-11-19T17:00:36;99744.29;;;8.59;91.94
40794;BME280;26502;51.886;15.604;2023-11-19T17:06:07;99742.43;;;8.57;92.00
40794;BME280;26502;51.886;15.604;2023-11-19T17:11:34;99746.38;;;8.56;91.93
40794;BME280;26502;51.886;15.604;2023-11-19T17:17:00;99749.40;;;8.55;91.96
40794;BME280;26502;51.886;15.604;2023-11-19T17:22:27;99745.25;;;8.57;92.15
40794;BME280;26502;51.886;15.604;2023-11-19T17:27:54;99745.05;;;8.58;92.06
40794;BME280;26502;51.886;15.604;2023-11-19T17:33:21;99748.52;;;8.60;92.13
40794;BME280;26502;51.886;15.604;2023-11-19T17:38:47;99748.97;;;8.57;92.11
40794;BME280;26502;51.886;15.604;2023-11-19T17:44:14;99742.93;;;8.58;92.26
40794;BME280;26502;51.886;15.604;2023-11-19T17:49:40;99742.77;;;8.58;92.28
40794;BME280;26502;51.886;15.604;2023-11-19T17:55:12;99743.10;;;8.54;92.23
40794;BME280;26502;51.886;15.604;2023-11-19T18:00:41;99738.79;;;8.51;92.25
40794;BME280;26502;51.886;15.604;2023-11-19T18:06:16;99738.77;;;8.51;92.37
40794;BME280;26502;51.886;15.604;2023-11-19T18:11:44;99740.02;;;8.51;92.24
40794;BME280;26502;51.886;15.604;2023-11-19T18:17:11;99740.44;;;8.50;92.17
40794;BME280;26502;51.886;15.604;2023-11-19T18:22:40;99745.59;;;8.49;92.16
40794;BME280;26502;51.886;15.604;2023-11-19T18:28:12;99751.52;;;8.46;92.07
40794;BME280;26502;51.886;15.604;2023-11-19T18:33:41;99755.90;;;8.42;92.02
40794;BME280;26502;51.886;15.604;2023-11-19T18:39:08;99750.93;;;8.33;91.71
40794;BME280;26502;51.886;15.604;2023-11-19T18:44:36;99752.47;;;8.25;91.72
40794;BME280;26502;51.886;15.604;2023-11-19T18:50:06;99758.57;;;8.14;91.35
40794;BME280;26502;51.886;15.604;2023-11-19T18:55:34;99757.77;;;8.06;91.42
40794;BME280;26502;51.886;15.604;2023-11-19T19:01:03;99750.20;;;8.05;91.60
40794;BME280;26502;51.886;15.604;2023-11-19T19:06:30;99757.02;;;8.08;91.75
40794;BME280;26502;51.886;15.604;2023-11-19T19:12:01;99766.50;;;8.10;91.81
40794;BME280;26502;51.886;15.604;2023-11-19T19:17:27;99768.89;;;8.12;91.93
40794;BME280;26502;51.886;15.604;2023-11-19T19:22:54;99775.86;;;8.15;92.02
40794;BME280;26502;51.886;15.604;2023-11-19T19:28:21;99776.73;;;8.15;91.91
40794;BME280;26502;51.886;15.604;2023-11-19T19:33:48;99771.51;;;8.18;92.09
40794;BME280;26502;51.886;15.604;2023-11-19T19:39:19;99769.44;;;8.16;91.94
40794;BME280;26502;51.886;15.604;2023-11-19T19:44:46;99778.45;;;8.16;92.08
40794;BME280;26502;51.886;15.604;2023-11-19T19:50:14;99769.61;;;8.16;92.09
40794;BME280;26502;51.886;15.604;2023-11-19T19:55:46;99769.41;;;8.17;92.16
40794;BME280;26502;51.886;15.604;2023-11-19T20:01:15;99773.33;;;8.16;92.09
40794;BME280;26502;51.886;15.604;2023-11-19T20:06:42;99779.47;;;8.13;92.03
40794;BME280;26502;51.886;15.604;2023-11-19T20:12:09;99779.04;;;8.10;92.12
40794;BME280;26502;51.886;15.604;2023-11-19T20:17:36;99783.81;;;8.10;92.11
40794;BME280;26502;51.886;15.604;2023-11-19T20:23:08;99787.88;;;8.10;92.18
40794;BME280;26502;51.886;15.604;2023-11-19T20:28:37;99788.13;;;8.08;92.02
40794;BME280;26502;51.886;15.604;2023-11-19T20:34:07;99792.74;;;8.07;92.19
40794;BME280;26502;51.886;15.604;2023-11-19T20:39:41;99796.50;;;8.06;92.11
40794;BME280;26502;51.886;15.604;2023-11-19T20:45:21;99795.86;;;8.04;92.13
40794;BME280;26502;51.886;15.604;2023-11-19T20:50:57;99793.69;;;8.01;92.00
40794;BME280;26502;51.886;15.604;2023-11-19T20:56:24;99789.83;;;7.95;91.89
40794;BME280;26502;51.886;15.604;2023-11-19T21:02:09;99789.19;;;7.93;92.01
40794;BME280;26502;51.886;15.604;2023-11-19T21:07:50;99795.04;;;8.03;92.27
40794;BME280;26502;51.886;15.604;2023-11-19T21:13:24;99798.79;;;8.11;92.42
40794;BME280;26502;51.886;15.604;2023-11-19T21:18:53;99806.00;;;8.17;92.38
40794;BME280;26502;51.886;15.604;2023-11-19T21:24:23;99806.30;;;8.19;92.36
40794;BME280;26502;51.886;15.604;2023-11-19T21:29:51;99803.92;;;8.21;92.33
40794;BME280;26502;51.886;15.604;2023-11-19T21:35:17;99805.29;;;8.28;92.58
40794;BME280;26502;51.886;15.604;2023-11-19T21:40:43;99799.50;;;8.31;92.48
40794;BME280;26502;51.886;15.604;2023-11-19T21:46:10;99792.42;;;8.30;92.45
40794;BME280;26502;51.886;15.604;2023-11-19T21:51:41;99795.30;;;8.29;92.27
40794;BME280;26502;51.886;15.604;2023-11-19T21:57:07;99793.37;;;8.29;92.38
40794;BME280;26502;51.886;15.604;2023-11-19T22:02:34;99797.16;;;8.27;92.26
40794;BME280;26502;51.886;15.604;2023-11-19T22:08:00;99789.77;;;8.31;92.48
40794;BME280;26502;51.886;15.604;2023-11-19T22:13:26;99794.27;;;8.28;92.48
40794;BME280;26502;51.886;15.604;2023-11-19T22:18:52;99793.44;;;8.32;92.54
40794;BME280;26502;51.886;15.604;2023-11-19T22:24:18;99796.37;;;8.34;92.55
40794;BME280;26502;51.886;15.604;2023-11-19T22:29:46;99794.94;;;8.39;92.60
40794;BME280;26502;51.886;15.604;2023-11-19T22:35:13;99801.23;;;8.41;92.62
40794;BME280;26502;51.886;15.604;2023-11-19T22:40:39;99801.05;;;8.36;92.46
40794;BME280;26502;51.886;15.604;2023-11-19T22:46:06;99796.23;;;8.33;92.67
40794;BME280;26502;51.886;15.604;2023-11-19T22:51:33;99795.33;;;8.29;92.73
40794;BME280;26502;51.886;15.604;2023-11-19T22:57:00;99792.85;;;8.29;93.02
40794;BME280;26502;51.886;15.604;2023-11-19T23:02:27;99793.38;;;8.24;92.88
40794;BME280;26502;51.886;15.604;2023-11-19T23:07:54;99794.99;;;8.19;92.98
40794;BME280;26502;51.886;15.604;2023-11-19T23:13:23;99796.77;;;8.13;92.90
40794;BME280;26502;51.886;15.604;2023-11-19T23:18:49;99799.16;;;8.11;92.87
40794;BME280;26502;51.886;15.604;2023-11-19T23:24:15;99799.06;;;8.09;92.82
40794;BME280;26502;51.886;15.604;2023-11-19T23:29:41;99805.35;;;8.11;93.03
40794;BME280;26502;51.886;15.604;2023-11-19T23:35:09;99805.38;;;8.15;93.07
40794;BME280;26502;51.886;15.604;2023-11-19T23:40:36;99803.38;;;8.12;93.02
40794;BME280;26502;51.886;15.604;2023-11-19T23:46:03;99799.02;;;8.15;93.21
40794;BME280;26502;51.886;15.604;2023-11-19T23:51:30;99790.57;;;8.19;93.13
40794;BME280;26502;51.886;15.604;2023-11-19T23:56:56;99792.30;;;8.20;93.03
